Time;durP1;ratioP1;P1;durP2;ratioP2;P2;SDS_P1;SDS_P2;PMS_P1;PMS_P2;Temp;Humidity;BMP_temperature;BMP_pressure;BME280_temperature;BME280_humidity;BME280_pressure;Samples;Min_cycle;Max_cycle;Signal;HPM_P1;HPM_P2
2021/01/29 00:01:14;;;;;;;130.43;37.92;;;4.00;99.90;;;;;;4145440;28;20040;-76
2021/01/29 00:03:18;;;;;;;135.68;37.42;;;4.00;99.90;;;;;;4146570;28;20118;-76
2021/01/29 00:05:20;;;;;;;143.30;38.08;;;4.10;99.90;;;;;;4146673;28;20030;-75
2021/01/29 00:07:21;;;;;;;133.30;38.85;;;4.10;99.90;;;;;;4145573;28;20044;-76
2021/01/29 00:09:22;;;;;;;147.15;37.92;;;4.10;99.90;;;;;;4146562;28;20108;-76
2021/01/29 00:11:22;;;;;;;134.05;37.42;;;4.10;99.90;;;;;;4146615;28;20031;-77
2021/01/29 00:13:24;;;;;;;157.23;40.20;;;4.10;99.90;;;;;;4145186;28;20161;-76
2021/01/29 00:15:25;;;;;;;138.75;38.28;;;4.10;99.90;;;;;;4146383;28;20707;-76
2021/01/29 00:17:26;;;;;;;163.57;40.22;;;4.10;99.90;;;;;;4146689;28;20115;-76
2021/01/29 00:19:27;;;;;;;167.45;42.60;;;4.10;99.90;;;;;;4146760;28;20107;-76
2021/01/29 00:21:27;;;;;;;157.57;40.90;;;4.10;99.90;;;;;;4145378;28;20429;-76
2021/01/29 00:23:28;;;;;;;183.68;42.88;;;4.10;99.90;;;;;;4146216;28;20030;-76
2021/01/29 00:25:35;;;;;;;166.75;42.10;;;4.10;99.90;;;;;;4146370;28;20037;-77
2021/01/29 00:27:36;;;;;;;160.80;38.90;;;4.20;99.90;;;;;;4145260;28;20022;-76
2021/01/29 00:29:37;;;;;;;167.35;40.65;;;4.20;99.90;;;;;;4146082;28;20037;-76
2021/01/29 00:31:38;;;;;;;172.77;43.13;;;4.20;99.90;;;;;;4146313;28;20381;-76
2021/01/29 00:33:38;;;;;;;165.73;41.30;;;4.20;99.90;;;;;;4144715;28;20037;-76
2021/01/29 00:35:39;;;;;;;173.85;39.92;;;4.20;99.90;;;;;;4146398;28;20025;-77
2021/01/29 00:37:41;;;;;;;184.95;44.47;;;4.20;99.90;;;;;;4146467;28;20033;-76
2021/01/29 00:39:44;;;;;;;178.77;42.17;;;4.20;99.90;;;;;;4144620;28;20037;-76
2021/01/29 00:41:45;;;;;;;195.75;45.10;;;4.20;99.90;;;;;;4146401;28;20070;-76
2021/01/29 00:43:45;;;;;;;203.07;46.42;;;4.20;99.90;;;;;;4144946;28;20493;-76
2021/01/29 00:45:46;;;;;;;210.95;45.22;;;4.20;99.90;;;;;;4145684;28;20116;-76
2021/01/29 00:47:47;;;;;;;202.73;47.95;;;4.20;99.90;;;;;;4144969;28;20045;-76
2021/01/29 00:49:47;;;;;;;204.85;46.78;;;4.20;99.90;;;;;;4146315;28;20466;-76
2021/01/29 00:51:48;;;;;;;230.43;48.35;;;4.20;99.90;;;;;;4144686;28;20026;-76
2021/01/29 00:53:49;;;;;;;222.98;46.40;;;4.20;99.90;;;;;;4146397;28;20053;-77
2021/01/29 00:55:49;;;;;;;235.95;49.95;;;4.30;99.90;;;;;;4146099;28;20037;-76
2021/01/29 00:57:50;;;;;;;252.32;51.58;;;4.30;99.90;;;;;;4146139;28;20389;-76
2021/01/29 00:59:50;;;;;;;221.65;48.75;;;4.30;99.90;;;;;;4145613;28;20089;-76
2021/01/29 01:01:51;;;;;;;263.23;50.08;;;4.30;99.90;;;;;;4145855;28;20509;-76
2021/01/29 01:03:51;;;;;;;303.05;55.03;;;4.40;99.90;;;;;;4146020;28;20052;-76
2021/01/29 01:05:53;;;;;;;215.52;45.72;;;4.30;99.90;;;;;;4144769;28;20042;-76
2021/01/29 01:07:54;;;;;;;241.65;49.22;;;4.40;99.90;;;;;;4145967;28;20112;-76
2021/01/29 01:09:56;;;;;;;255.02;50.95;;;4.40;99.90;;;;;;4144343;28;20125;-76
2021/01/29 01:11:57;;;;;;;265.80;53.00;;;4.40;99.90;;;;;;4145762;28;20041;-76
2021/01/29 01:13:58;;;;;;;281.25;55.00;;;4.40;99.90;;;;;;4144462;28;20034;-76
2021/01/29 01:15:58;;;;;;;307.48;58.20;;;4.40;99.90;;;;;;4144460;28;20044;-76
2021/01/29 01:18:00;;;;;;;299.00;57.08;;;4.40;99.90;;;;;;4143872;28;20034;-76
2021/01/29 01:20:04;;;;;;;317.40;59.28;;;4.50;99.90;;;;;;4138340;28;20053;-77
2021/01/29 01:22:06;;;;;;;340.70;62.75;;;4.50;99.90;;;;;;4144564;28;20024;-76
2021/01/29 01:24:08;;;;;;;333.02;58.63;;;4.50;99.90;;;;;;4144353;28;20137;-76
2021/01/29 01:26:08;;;;;;;336.15;61.40;;;4.50;99.90;;;;;;4145336;28;20018;-76
2021/01/29 01:28:09;;;;;;;264.92;55.33;;;4.50;99.90;;;;;;4145504;28;20113;-76
2021/01/29 01:30:14;;;;;;;295.55;56.17;;;4.50;99.90;;;;;;4143908;28;20092;-76
2021/01/29 01:32:14;;;;;;;281.92;53.60;;;4.40;99.90;;;;;;4144226;28;20022;-76
2021/01/29 01:34:15;;;;;;;293.88;56.95;;;4.50;99.90;;;;;;4144167;28;20333;-76
2021/01/29 01:36:17;;;;;;;282.52;59.38;;;4.40;99.90;;;;;;4144130;28;20449;-76
2021/01/29 01:38:17;;;;;;;279.05;57.03;;;4.40;99.90;;;;;;4145212;28;20073;-76
2021/01/29 01:40:32;;;;;;;226.90;51.25;;;4.40;99.90;;;;;;4144047;28;20087;-76
2021/01/29 01:42:32;;;;;;;236.68;51.40;;;4.50;99.90;;;;;;4144164;28;20067;-76
2021/01/29 01:44:42;;;;;;;226.80;50.25;;;4.50;99.90;;;;;;4146002;28;20026;-76
2021/01/29 01:46:42;;;;;;;210.73;48.83;;;4.50;99.90;;;;;;4145593;28;20052;-76
2021/01/29 01:49:14;;;;;;;195.93;47.30;;;4.50;99.90;;;;;;4145369;28;20041;-76
2021/01/29 01:51:33;;;;;;;162.25;42.65;;;4.50;99.90;;;;;;4140608;28;20026;-76
2021/01/29 01:53:42;;;;;;;169.50;43.50;;;4.50;99.90;;;;;;4145619;28;20157;-76
2021/01/29 01:55:45;;;;;;;171.45;44.78;;;4.60;99.90;;;;;;4144131;28;20061;-76
2021/01/29 01:57:50;;;;;;;193.63;43.63;;;4.60;99.90;;;;;;4144007;28;20030;-76
2021/01/29 01:59:57;;;;;;;158.23;43.63;;;4.60;99.90;;;;;;4143926;28;20073;-76
2021/01/29 02:01:58;;;;;;;154.15;39.85;;;4.60;99.90;;;;;;4145363;28;20030;-76
2021/01/29 02:03:59;;;;;;;137.90;41.70;;;4.60;99.90;;;;;;4145269;28;20076;-76
2021/01/29 02:06:02;;;;;;;172.65;42.38;;;4.70;99.90;;;;;;4145570;28;20037;-76
2021/01/29 02:08:07;;;;;;;165.77;41.55;;;4.70;99.90;;;;;;4143509;28;20034;-76
2021/01/29 02:10:09;;;;;;;161.98;40.90;;;4.70;99.90;;;;;;4132206;28;20113;-76
2021/01/29 02:12:10;;;;;;;143.30;38.63;;;4.70;99.90;;;;;;4145790;28;20105;-76
2021/01/29 02:14:10;;;;;;;179.27;45.08;;;4.70;99.90;;;;;;4148697;28;20030;-76
2021/01/29 02:16:22;;;;;;;148.85;39.25;;;4.70;99.90;;;;;;4148886;28;20018;-76
2021/01/29 02:18:32;;;;;;;165.85;40.80;;;4.80;99.90;;;;;;4146893;28;20452;-77
2021/01/29 02:20:42;;;;;;;146.70;38.28;;;4.80;99.90;;;;;;4148424;28;20030;-76
2021/01/29 02:23:01;;;;;;;154.00;39.60;;;4.80;99.90;;;;;;4148323;28;20091;-76
2021/01/29 02:25:30;;;;;;;130.30;36.85;;;4.90;99.90;;;;;;4145554;28;20033;-77
2021/01/29 02:27:46;;;;;;;145.45;38.22;;;4.90;99.90;;;;;;4148141;28;20037;-77
2021/01/29 02:30:03;;;;;;;146.35;36.88;;;4.90;99.90;;;;;;4146907;28;20504;-76
2021/01/29 02:32:22;;;;;;;156.38;39.05;;;5.00;99.90;;;;;;4148003;28;20026;-76
2021/01/29 02:34:51;;;;;;;168.30;40.20;;;5.00;99.90;;;;;;4142480;28;20076;-77
2021/01/29 02:37:13;;;;;;;164.60;39.03;;;5.00;99.90;;;;;;4134653;28;20041;-76
2021/01/29 02:39:45;;;;;;;163.63;39.97;;;5.00;99.90;;;;;;4147614;28;20037;-77
2021/01/29 02:41:56;;;;;;;165.32;40.22;;;5.00;99.90;;;;;;4147860;28;20030;-76
2021/01/29 02:44:21;;;;;;;165.02;42.83;;;5.10;99.90;;;;;;4146512;28;20026;-77
2021/01/29 02:46:30;;;;;;;163.55;41.20;;;5.20;99.90;;;;;;4146148;28;20049;-77
2021/01/29 02:48:36;;;;;;;150.65;40.80;;;5.10;99.90;;;;;;4147744;28;20026;-77
2021/01/29 02:51:19;;;;;;;167.07;43.55;;;5.20;99.90;;;;;;4148336;28;20038;-77
2021/01/29 02:53:34;;;;;;;156.50;39.75;;;5.20;99.90;;;;;;4143684;28;20036;-77
2021/01/29 02:55:38;;;;;;;157.90;40.55;;;5.20;99.90;;;;;;4148318;28;20042;-77
2021/01/29 02:57:50;;;;;;;160.88;41.97;;;5.20;99.90;;;;;;4147868;28;20080;-77
2021/01/29 03:00:26;;;;;;;163.90;42.33;;;5.20;99.90;;;;;;4147784;28;20041;-77
2021/01/29 03:02:42;;;;;;;191.27;42.83;;;5.30;99.90;;;;;;4145970;28;20113;-77
2021/01/29 03:04:55;;;;;;;159.52;41.35;;;5.30;99.90;;;;;;4147419;28;20037;-77
2021/01/29 03:07:07;;;;;;;189.15;43.58;;;5.30;99.90;;;;;;4146408;28;20052;-77
2021/01/29 03:09:17;;;;;;;184.43;42.05;;;5.30;99.90;;;;;;4145914;28;20076;-77
2021/01/29 03:11:22;;;;;;;169.43;42.05;;;5.30;99.90;;;;;;4146285;28;20022;-77
2021/01/29 03:13:29;;;;;;;163.02;41.10;;;5.30;99.90;;;;;;4146126;28;20057;-76
2021/01/29 03:15:37;;;;;;;171.27;41.55;;;5.30;99.90;;;;;;4146252;28;20029;-77
2021/01/29 03:17:50;;;;;;;156.40;39.08;;;5.40;99.90;;;;;;4146075;28;20025;-77
2021/01/29 03:19:59;;;;;;;175.18;41.03;;;5.40;99.90;;;;;;4143728;28;20026;-77
2021/01/29 03:22:19;;;;;;;161.02;38.47;;;5.40;99.90;;;;;;4144555;28;20056;-77
2021/01/29 03:24:28;;;;;;;173.88;41.33;;;5.40;99.90;;;;;;4144840;28;20080;-77
2021/01/29 03:26:36;;;;;;;193.57;43.13;;;5.40;99.90;;;;;;4146130;28;20030;-77
2021/01/29 03:28:42;;;;;;;188.68;43.30;;;5.40;99.90;;;;;;4144923;28;20022;-76
2021/01/29 03:30:48;;;;;;;181.68;41.17;;;5.40;99.90;;;;;;4145808;28;20030;-76
2021/01/29 03:32:52;;;;;;;199.60;43.40;;;5.40;99.90;;;;;;4147261;28;20072;-76
2021/01/29 03:35:01;;;;;;;;;;;5.40;99.90;;;;;;4147906;28;20037;-76
2021/01/29 03:37:27;;;;;;;196.75;44.30;;;5.40;99.90;;;;;;4147144;28;19916;-76
2021/01/29 03:39:38;;;;;;;191.52;43.35;;;5.50;99.90;;;;;;4147247;28;20613;-77
2021/01/29 03:41:43;;;;;;;196.25;42.47;;;5.50;99.90;;;;;;4147547;28;20030;-76
2021/01/29 03:44:05;;;;;;;207.35;44.20;;;5.50;99.90;;;;;;4147407;28;20022;-76
2021/01/29 03:46:13;;;;;;;191.25;41.35;;;5.50;99.90;;;;;;4145280;28;20434;-76
2021/01/29 03:48:27;;;;;;;184.13;40.67;;;5.60;99.90;;;;;;4147102;28;20117;-76
2021/01/29 03:50:46;;;;;;;190.50;45.15;;;5.60;99.90;;;;;;4147139;28;20414;-76
2021/01/29 03:53:16;;;;;;;216.63;44.13;;;5.60;99.90;;;;;;4147148;28;20436;-77
2021/01/29 03:55:35;;;;;;;195.80;43.38;;;5.60;99.90;;;;;;4146779;28;20053;-76
2021/01/29 03:58:00;;;;;;;227.95;45.08;;;5.70;99.90;;;;;;4147152;28;20481;-76
2021/01/29 04:00:16;;;;;;;210.23;45.17;;;5.70;99.90;;;;;;4146647;28;20101;-76
2021/01/29 04:02:27;;;;;;;163.40;38.97;;;5.70;99.90;;;;;;4135033;28;20053;-77
2021/01/29 04:04:33;;;;;;;210.50;44.15;;;5.80;99.90;;;;;;4145575;28;20057;-77
2021/01/29 04:06:51;;;;;;;226.25;48.35;;;5.80;99.90;;;;;;4146541;28;20469;-77
2021/01/29 04:08:54;;;;;;;230.00;47.40;;;5.80;99.90;;;;;;4146761;28;20425;-77
2021/01/29 04:10:58;;;;;;;211.15;43.70;;;5.80;99.90;;;;;;4146660;28;20517;-77
2021/01/29 04:13:34;;;;;;;230.55;45.83;;;5.70;99.90;;;;;;4146732;28;20022;-77
2021/01/29 04:15:46;;;;;;;210.82;44.28;;;5.70;99.90;;;;;;4146258;28;20121;-77
2021/01/29 04:17:58;;;;;;;225.13;48.78;;;5.80;99.90;;;;;;4145561;28;20030;-77
2021/01/29 04:20:09;;;;;;;205.13;44.92;;;5.70;99.90;;;;;;4146493;28;20033;-77
2021/01/29 04:22:17;;;;;;;229.52;46.20;;;5.80;99.90;;;;;;4146261;28;20033;-77
2021/01/29 04:24:29;;;;;;;236.13;48.45;;;5.80;99.90;;;;;;4133980;28;20084;-77
2021/01/29 04:26:57;;;;;;;216.13;47.92;;;5.80;99.90;;;;;;4146468;28;20030;-77
2021/01/29 04:29:03;;;;;;;228.07;47.95;;;5.80;99.90;;;;;;4145844;28;20048;-77
2021/01/29 04:31:05;;;;;;;209.15;46.42;;;5.80;99.90;;;;;;4146006;28;20034;-77
2021/01/29 04:33:09;;;;;;;174.73;41.92;;;5.80;99.90;;;;;;4144942;28;20053;-77
2021/01/29 04:35:13;;;;;;;143.35;40.83;;;5.90;99.90;;;;;;4145572;28;20033;-77
2021/01/29 04:37:17;;;;;;;171.55;42.72;;;5.90;99.90;;;;;;4146501;28;20022;-77
2021/01/29 04:39:38;;;;;;;170.90;40.70;;;6.00;99.90;;;;;;4146529;28;20076;-77
2021/01/29 04:42:10;;;;;;;188.27;43.72;;;6.00;99.90;;;;;;4146338;28;20030;-76
2021/01/29 04:44:40;;;;;;;158.90;39.75;;;6.00;99.90;;;;;;4146037;28;20022;-77
2021/01/29 04:46:52;;;;;;;159.35;38.92;;;6.00;99.90;;;;;;4146283;28;20541;-76
2021/01/29 04:48:55;;;;;;;194.85;41.67;;;6.00;99.90;;;;;;4144982;28;20085;-77
2021/01/29 04:51:29;;;;;;;138.73;38.10;;;6.10;99.90;;;;;;4146467;28;20397;-77
2021/01/29 04:54:09;;;;;;;156.70;41.00;;;6.00;99.90;;;;;;4145406;28;20393;-77
2021/01/29 04:56:14;;;;;;;135.80;36.00;;;6.00;99.90;;;;;;4121157;28;20105;-77
2021/01/29 04:58:22;;;;;;;136.30;36.85;;;6.10;99.90;;;;;;4142720;28;20030;-76
2021/01/29 05:00:47;;;;;;;150.25;35.72;;;6.10;99.90;;;;;;4145923;28;20033;-76
2021/01/29 05:03:10;;;;;;;145.88;37.63;;;6.10;99.90;;;;;;4144678;28;20478;-76
2021/01/29 05:05:32;;;;;;;160.45;39.50;;;6.20;99.90;;;;;;4143929;28;20165;-77
2021/01/29 05:07:38;;;;;;;136.18;34.88;;;6.20;99.90;;;;;;4144566;28;20040;-76
2021/01/29 05:10:19;;;;;;;131.55;35.28;;;6.20;99.90;;;;;;4145602;28;20025;-76
2021/01/29 05:13:08;;;;;;;145.65;35.97;;;6.30;99.90;;;;;;4121041;28;20065;-76
2021/01/29 05:15:23;;;;;;;161.65;37.70;;;6.30;99.90;;;;;;4144221;28;20500;-77
2021/01/29 05:17:42;;;;;;;204.88;39.08;;;6.30;99.90;;;;;;4131130;28;20409;-77
2021/01/29 05:20:04;;;;;;;138.30;33.58;;;6.30;99.90;;;;;;4143112;28;20460;-77
2021/01/29 05:22:38;;;;;;;156.50;35.13;;;6.30;99.90;;;;;;4138788;28;20048;-77
2021/01/29 05:25:02;;;;;;;100.45;29.75;;;6.40;99.90;;;;;;4133714;28;20548;-77
2021/01/29 05:27:21;;;;;;;163.00;37.28;;;6.50;99.90;;;;;;4108313;28;20033;-77
2021/01/29 05:30:04;;;;;;;79.75;27.42;;;6.50;99.90;;;;;;4131133;28;20054;-77
2021/01/29 05:32:22;;;;;;;78.15;24.98;;;6.60;99.90;;;;;;4096210;28;20608;-77
2021/01/29 05:34:38;;;;;;;45.60;19.75;;;6.90;99.90;;;;;;4141946;28;20053;-76
2021/01/29 05:36:49;;;;;;;43.55;19.17;;;7.30;99.90;;;;;;4147231;28;20064;-77
2021/01/29 05:38:58;;;;;;;40.28;16.73;;;7.60;99.90;;;;;;4136255;28;20083;-77
2021/01/29 05:41:29;;;;;;;46.45;18.42;;;7.90;99.90;;;;;;4144418;28;20057;-77
2021/01/29 05:43:56;;;;;;;45.05;19.20;;;8.00;99.90;;;;;;4144920;28;20526;-76
2021/01/29 05:46:24;;;;;;;44.92;17.90;;;8.10;99.90;;;;;;4144358;28;20110;-76
2021/01/29 05:48:43;;;;;;;44.38;16.35;;;8.20;99.90;;;;;;4144406;28;20434;-76
2021/01/29 05:51:02;;;;;;;39.50;17.25;;;8.20;99.90;;;;;;4142658;28;20528;-76
2021/01/29 05:53:20;;;;;;;36.67;17.23;;;8.20;99.90;;;;;;4143869;28;20485;-76
2021/01/29 05:55:30;;;;;;;37.42;16.13;;;8.30;99.90;;;;;;4132492;28;20121;-76
2021/01/29 05:57:49;;;;;;;33.85;15.68;;;8.30;99.90;;;;;;4144483;28;20163;-76
2021/01/29 06:00:34;;;;;;;31.95;14.93;;;8.20;99.90;;;;;;4143619;28;20060;-76
2021/01/29 06:03:08;;;;;;;29.42;14.75;;;8.20;99.90;;;;;;4077138;29;20491;-76
2021/01/29 06:05:43;;;;;;;29.52;14.68;;;8.20;99.90;;;;;;4078259;29;20028;-76
2021/01/29 06:08:02;;;;;;;25.60;12.10;;;8.30;99.90;;;;;;4104963;28;20052;-75
2021/01/29 06:10:26;;;;;;;27.15;12.70;;;8.30;99.90;;;;;;4143583;28;20730;-77
2021/01/29 06:12:44;;;;;;;23.50;11.98;;;8.40;99.90;;;;;;4131546;28;20041;-74
2021/01/29 06:15:06;;;;;;;29.98;11.90;;;8.30;99.90;;;;;;4144717;28;20113;-74
2021/01/29 06:17:15;;;;;;;23.02;11.05;;;8.30;99.90;;;;;;4144002;28;20026;-74
2021/01/29 06:19:43;;;;;;;18.50;8.68;;;8.30;99.90;;;;;;4144208;28;20117;-77
2021/01/29 06:21:43;;;;;;;21.25;9.70;;;8.30;99.90;;;;;;4143230;28;20022;-75
2021/01/29 06:23:57;;;;;;;23.80;10.50;;;8.30;99.90;;;;;;4144553;28;20620;-75
2021/01/29 06:26:18;;;;;;;22.20;10.40;;;8.30;99.90;;;;;;4145259;28;20598;-75
2021/01/29 06:28:22;;;;;;;18.20;10.20;;;8.30;99.90;;;;;;4143358;28;20400;-77
2021/01/29 06:30:41;;;;;;;20.42;9.70;;;8.20;99.90;;;;;;4143956;28;20476;-74
2021/01/29 06:32:45;;;;;;;18.45;9.88;;;8.30;99.90;;;;;;4130252;28;20034;-77
2021/01/29 06:35:06;;;;;;;24.30;9.57;;;8.20;99.90;;;;;;4144022;28;20180;-74
2021/01/29 06:37:32;;;;;;;15.48;9.57;;;8.30;99.90;;;;;;4132625;28;20033;-74
2021/01/29 06:40:02;;;;;;;17.08;9.10;;;8.30;99.90;;;;;;4131528;28;20526;-74
2021/01/29 06:42:09;;;;;;;18.80;10.00;;;8.20;99.90;;;;;;4132271;28;20113;-77
2021/01/29 06:44:29;;;;;;;22.65;10.95;;;8.20;99.90;;;;;;4144601;28;20114;-75
2021/01/29 06:47:00;;;;;;;18.70;10.50;;;8.20;99.90;;;;;;4144379;28;20081;-74
2021/01/29 06:49:13;;;;;;;19.27;11.32;;;8.20;99.90;;;;;;4140870;28;20040;-77
2021/01/29 06:51:32;;;;;;;17.48;10.07;;;8.20;99.90;;;;;;4137921;28;20026;-77
2021/01/29 06:53:44;;;;;;;21.10;10.38;;;8.20;99.90;;;;;;4142555;28;20034;-74
2021/01/29 06:56:09;;;;;;;18.90;10.30;;;8.10;99.90;;;;;;4143296;28;20030;-75
2021/01/29 06:58:44;;;;;;;21.92;11.45;;;8.20;99.90;;;;;;4141883;28;20026;-75
2021/01/29 07:01:15;;;;;;;16.70;8.60;;;8.20;99.90;;;;;;4145641;28;20680;-75
2021/01/29 07:03:57;;;;;;;24.63;10.38;;;8.20;99.90;;;;;;4147134;28;20037;-76
2021/01/29 07:06:22;;;;;;;18.67;10.52;;;8.20;99.90;;;;;;4162040;28;20391;-75
2021/01/29 07:08:54;;;;;;;24.55;12.98;;;8.10;99.90;;;;;;4144996;28;20037;-76
2021/01/29 07:11:31;;;;;;;19.52;10.13;;;8.10;99.90;;;;;;4146399;28;20580;-76
2021/01/29 07:13:56;;;;;;;19.58;11.35;;;8.20;99.90;;;;;;4147011;28;20121;-76
2021/01/29 07:16:27;;;;;;;16.73;10.20;;;8.20;99.90;;;;;;4138190;28;20096;-76
2021/01/29 07:18:53;;;;;;;20.17;10.68;;;8.20;99.90;;;;;;4146467;28;20473;-76
2021/01/29 07:21:03;;;;;;;17.25;9.27;;;8.20;99.90;;;;;;4132198;28;20052;-76
2021/01/29 07:23:21;;;;;;;19.00;9.52;;;8.20;99.90;;;;;;4141993;28;20030;-76
2021/01/29 07:25:56;;;;;;;23.90;11.80;;;8.20;99.90;;;;;;4144476;28;20022;-76
2021/01/29 07:28:38;;;;;;;17.15;9.05;;;8.20;99.90;;;;;;4137818;28;20036;-77
2021/01/29 07:30:39;;;;;;;15.77;7.68;;;8.30;99.90;;;;;;4145365;28;20080;-77
2021/01/29 07:32:53;;;;;;;19.08;7.78;;;8.20;99.90;;;;;;4146740;28;20037;-76
2021/01/29 07:35:05;;;;;;;7.70;4.32;;;8.30;99.90;;;;;;4143083;28;20100;-76
2021/01/29 07:37:21;;;;;;;8.52;5.60;;;8.30;99.90;;;;;;4144796;28;20034;-76
2021/01/29 07:39:57;;;;;;;13.43;5.22;;;8.30;99.90;;;;;;4144077;28;20048;-75
2021/01/29 07:42:21;;;;;;;11.13;4.25;;;8.30;99.90;;;;;;4144265;28;20140;-76
2021/01/29 07:44:48;;;;;;;7.88;4.20;;;8.40;99.90;;;;;;4144874;28;20034;-76
2021/01/29 07:47:03;;;;;;;7.57;4.57;;;8.40;99.90;;;;;;4115725;28;20111;-76
2021/01/29 07:49:13;;;;;;;6.32;4.10;;;8.40;99.90;;;;;;4134027;28;20022;-76
2021/01/29 07:51:26;;;;;;;5.70;3.83;;;8.30;99.90;;;;;;4156749;28;20033;-75
2021/01/29 07:53:51;;;;;;;;;;;8.30;99.90;;;;;;4147300;28;20029;-75
2021/01/29 07:56:10;;;;;;;11.00;5.28;;;8.30;99.90;;;;;;4118124;28;20000;-75
2021/01/29 07:58:17;;;;;;;6.95;4.80;;;8.30;99.90;;;;;;4146395;28;20026;-76
2021/01/29 08:01:00;;;;;;;7.78;5.82;;;8.30;99.90;;;;;;4144533;28;20060;-76
2021/01/29 08:03:06;;;;;;;10.93;6.05;;;8.30;99.90;;;;;;4144432;28;20409;-76
2021/01/29 08:05:48;;;;;;;13.98;7.40;;;8.40;99.90;;;;;;4145043;28;20038;-76
2021/01/29 08:07:53;;;;;;;12.93;5.90;;;8.40;99.90;;;;;;4138105;28;20018;-76
2021/01/29 08:09:58;;;;;;;17.75;8.30;;;8.40;99.90;;;;;;4144681;28;20647;-77
2021/01/29 08:12:04;;;;;;;11.55;6.25;;;8.50;99.90;;;;;;4133121;28;22039;-76
2021/01/29 08:14:16;;;;;;;16.30;7.35;;;8.50;99.90;;;;;;4136870;28;20030;-77
2021/01/29 08:17:01;;;;;;;14.48;5.75;;;8.60;99.90;;;;;;4143506;28;20026;-76
2021/01/29 08:19:41;;;;;;;21.40;6.63;;;8.60;99.90;;;;;;4141227;28;20139;-77
2021/01/29 08:22:19;;;;;;;16.58;7.60;;;8.60;99.90;;;;;;4128548;28;20031;-75
2021/01/29 08:24:47;;;;;;;10.23;4.85;;;8.60;99.90;;;;;;4143199;28;20040;-75
2021/01/29 08:27:30;;;;;;;22.42;6.05;;;8.70;99.90;;;;;;4142770;28;20030;-75
2021/01/29 08:29:50;;;;;;;16.48;5.13;;;8.70;99.90;;;;;;4133481;28;20044;-75
2021/01/29 08:32:24;;;;;;;21.10;6.30;;;8.70;99.90;;;;;;4144702;28;20030;-76
2021/01/29 08:35:02;;;;;;;22.50;5.70;;;8.70;99.90;;;;;;4144477;28;20034;-76
2021/01/29 08:37:40;;;;;;;18.83;4.68;;;8.70;99.90;;;;;;4135386;28;20525;-76
2021/01/29 08:40:18;;;;;;;15.50;4.45;;;8.70;99.90;;;;;;4143831;28;20033;-75
2021/01/29 08:42:59;;;;;;;10.38;4.07;;;8.70;99.90;;;;;;4142383;28;20037;-76
2021/01/29 08:45:34;;;;;;;17.27;5.32;;;8.70;99.90;;;;;;4142092;28;20505;-76
2021/01/29 08:48:12;;;;;;;17.55;4.15;;;8.80;99.90;;;;;;4142542;28;20497;-76
2021/01/29 08:50:50;;;;;;;12.82;4.60;;;8.80;99.90;;;;;;4143568;28;20049;-76
2021/01/29 08:53:14;;;;;;;18.58;5.93;;;8.80;99.90;;;;;;4145241;28;20037;-76
2021/01/29 08:55:29;;;;;;;14.73;4.57;;;8.70;99.90;;;;;;4144689;28;20030;-76
2021/01/29 08:57:53;;;;;;;22.35;6.63;;;8.60;99.90;;;;;;4143916;28;20026;-75
2021/01/29 08:59:58;;;;;;;25.10;6.82;;;8.60;99.90;;;;;;4143774;28;20120;-76
2021/01/29 09:02:11;;;;;;;20.10;6.18;;;8.70;99.90;;;;;;4144618;28;20026;-76
2021/01/29 09:04:34;;;;;;;21.20;5.38;;;8.60;99.90;;;;;;4140215;28;20712;-75
2021/01/29 09:06:40;;;;;;;23.60;5.50;;;8.60;99.90;;;;;;4139507;28;20482;-75
2021/01/29 09:08:42;;;;;;;30.38;6.75;;;8.50;99.90;;;;;;4138804;28;20034;-76
2021/01/29 09:10:57;;;;;;;23.63;6.13;;;8.50;99.90;;;;;;4139544;28;20026;-76
2021/01/29 09:13:04;;;;;;;19.52;5.90;;;8.50;99.90;;;;;;4139407;28;20600;-74
2021/01/29 09:15:18;;;;;;;18.02;5.80;;;8.50;99.90;;;;;;4150089;28;20040;-76
2021/01/29 09:17:49;;;;;;;;;;;8.50;99.90;;;;;;4144571;28;20045;-76
2021/01/29 09:20:00;;;;;;;24.20;5.72;;;8.40;99.90;;;;;;4129808;28;19921;-76
2021/01/29 09:22:29;;;;;;;30.08;6.32;;;8.40;99.90;;;;;;4144041;28;20025;-76
2021/01/29 09:24:47;;;;;;;30.50;7.30;;;8.40;99.90;;;;;;4140756;28;20456;-76
2021/01/29 09:27:06;;;;;;;35.95;9.43;;;8.30;99.90;;;;;;4157525;28;20522;-76
2021/01/29 09:29:15;;;;;;;21.00;4.70;;;8.30;99.90;;;;;;4141564;28;20036;-76
2021/01/29 09:31:31;;;;;;;35.83;7.93;;;8.40;99.90;;;;;;4143817;28;20685;-76
2021/01/29 09:33:37;;;;;;;20.27;5.40;;;8.30;99.90;;;;;;4142486;28;20580;-76
2021/01/29 09:35:57;;;;;;;2.53;2.33;;;8.30;99.90;;;;;;4142857;28;20037;-76
2021/01/29 09:38:00;;;;;;;2.05;1.95;;;8.20;99.90;;;;;;4144184;28;20026;-75
2021/01/29 09:40:06;;;;;;;17.65;4.07;;;8.20;99.90;;;;;;4143924;28;20030;-76
2021/01/29 09:42:12;;;;;;;1.40;1.40;;;8.20;99.90;;;;;;4142933;28;20104;-75
2021/01/29 09:44:26;;;;;;;24.63;4.13;;;8.20;99.90;;;;;;4127146;28;20486;-76
2021/01/29 09:46:51;;;;;;;5.93;5.45;;;8.30;99.90;;;;;;4132169;28;20042;-76
2021/01/29 09:49:01;;;;;;;1.90;1.80;;;8.30;99.90;;;;;;4130070;28;20382;-76
2021/01/29 09:51:27;;;;;;;3.03;2.35;;;8.40;99.90;;;;;;4127832;28;20122;-76
2021/01/29 09:53:32;;;;;;;2.65;2.50;;;8.50;99.90;;;;;;4129941;28;20089;-77
2021/01/29 09:56:15;;;;;;;4.57;4.32;;;8.50;99.90;;;;;;4142897;28;20040;-78
2021/01/29 09:58:34;;;;;;;1.45;1.45;;;8.60;99.90;;;;;;4141540;28;20529;-78
2021/01/29 10:00:37;;;;;;;1.60;1.60;;;8.70;99.90;;;;;;4130263;28;20449;-77
2021/01/29 10:02:40;;;;;;;2.38;2.28;;;8.70;99.90;;;;;;4129551;28;20597;-78
2021/01/29 10:05:13;;;;;;;3.70;3.45;;;8.70;99.90;;;;;;4127208;28;20023;-77
2021/01/29 10:07:18;;;;;;;3.35;3.15;;;8.70;99.90;;;;;;4126462;28;20026;-78
2021/01/29 10:09:26;;;;;;;10.35;4.13;;;8.70;99.90;;;;;;4127702;28;20138;-78
2021/01/29 10:11:48;;;;;;;20.38;2.97;;;8.80;99.90;;;;;;4129023;28;20027;-77
2021/01/29 10:14:21;;;;;;;1.25;1.25;;;8.90;99.90;;;;;;4131009;28;20030;-78
2021/01/29 10:16:37;;;;;;;1.77;1.75;;;8.90;99.90;;;;;;4143026;28;20049;-77
2021/01/29 10:18:39;;;;;;;6.88;6.40;;;8.90;99.90;;;;;;4143825;28;20041;-78
2021/01/29 10:20:42;;;;;;;2.13;2.03;;;8.90;99.90;;;;;;4144025;28;20022;-77
2021/01/29 10:23:19;;;;;;;1.60;1.60;;;9.00;99.90;;;;;;4144360;28;20027;-78
2021/01/29 10:25:56;;;;;;;1.40;1.40;;;9.00;99.90;;;;;;4141949;28;20037;-77
2021/01/29 10:28:11;;;;;;;3.10;2.05;;;9.10;99.90;;;;;;4143464;28;20153;-77
2021/01/29 10:30:33;;;;;;;3.05;2.95;;;9.20;99.90;;;;;;4143401;28;20058;-77
2021/01/29 10:32:36;;;;;;;12.18;3.72;;;9.20;99.90;;;;;;4143977;28;20033;-77
2021/01/29 10:34:53;;;;;;;2.67;2.58;;;9.20;99.90;;;;;;4146140;28;20026;-78
2021/01/29 10:37:04;;;;;;;3.40;3.15;;;9.20;99.90;;;;;;4146417;28;20291;-77
2021/01/29 10:39:10;;;;;;;1.55;1.55;;;9.30;99.90;;;;;;4145293;28;20033;-77
2021/01/29 10:41:22;;;;;;;1.40;1.40;;;9.30;99.90;;;;;;4146738;28;20037;-77
2021/01/29 10:43:47;;;;;;;2.63;2.53;;;9.30;99.90;;;;;;4148095;28;20060;-78
2021/01/29 10:46:15;;;;;;;1.63;1.63;;;9.40;99.90;;;;;;4146576;28;20037;-78
2021/01/29 10:48:21;;;;;;;1.80;1.80;;;9.40;99.90;;;;;;4144901;28;20132;-78
2021/01/29 10:50:26;;;;;;;1.52;1.52;;;9.60;99.90;;;;;;4146572;28;20413;-78
2021/01/29 10:52:49;;;;;;;1.65;1.63;;;9.60;99.90;;;;;;4144794;28;20380;-77
2021/01/29 10:54:50;;;;;;;1.42;1.42;;;9.80;99.90;;;;;;4158965;28;20037;-77
2021/01/29 10:57:04;;;;;;;1.50;1.50;;;9.90;99.90;;;;;;4146054;28;20112;-78
2021/01/29 10:59:21;;;;;;;2.28;1.95;;;10.10;99.90;;;;;;4135091;28;20105;-76
2021/01/29 11:01:29;;;;;;;1.65;1.65;;;10.20;99.90;;;;;;4145447;28;20084;-77
2021/01/29 11:03:39;;;;;;;3.42;2.95;;;10.30;99.90;;;;;;4146598;28;20029;-77
2021/01/29 11:05:44;;;;;;;3.47;3.25;;;10.30;99.90;;;;;;4145372;28;20081;-78
2021/01/29 11:07:48;;;;;;;5.68;2.67;;;10.40;99.90;;;;;;4145290;28;20026;-77
2021/01/29 11:10:07;;;;;;;1.33;1.33;;;10.50;99.90;;;;;;4147124;28;20022;-78
2021/01/29 11:12:41;;;;;;;2.70;2.50;;;10.50;99.90;;;;;;4144939;28;20022;-78
2021/01/29 11:14:50;;;;;;;7.57;2.33;;;10.40;99.90;;;;;;4145083;28;20038;-79
2021/01/29 11:17:08;;;;;;;1.60;1.60;;;10.50;99.90;;;;;;4152456;28;20096;-78
2021/01/29 11:19:22;;;;;;;1.88;1.83;;;10.50;99.90;;;;;;4144865;28;20053;-77
2021/01/29 11:21:32;;;;;;;3.95;3.75;;;10.50;99.90;;;;;;4144538;28;20513;-75
2021/01/29 11:24:05;;;;;;;7.47;3.05;;;10.50;99.90;;;;;;4143930;28;20033;-75
2021/01/29 11:26:21;;;;;;;1.35;1.35;;;10.50;99.90;;;;;;4121317;28;20026;-76
2021/01/29 11:28:59;;;;;;;2.00;1.90;;;10.40;99.90;;;;;;4143733;28;20107;-76
2021/01/29 11:31:11;;;;;;;3.50;2.13;;;10.40;99.90;;;;;;4144848;28;20538;-77
2021/01/29 11:33:13;;;;;;;2.30;2.20;;;10.30;99.90;;;;;;4145532;28;20026;-78
2021/01/29 11:35:23;;;;;;;1.40;1.40;;;10.30;99.90;;;;;;4144967;28;20026;-77